createdAt,value
2018-12-11T00:00:53.157Z,5.70
2018-12-11T00:03:21.553Z,5.80
2018-12-11T00:05:49.980Z,5.70
2018-12-11T00:08:18.424Z,5.70
2018-12-11T00:10:46.880Z,5.80
2018-12-11T00:13:15.286Z,5.80
2018-12-11T00:15:43.725Z,5.80
2018-12-11T00:18:12.179Z,5.70
2018-12-11T00:20:40.590Z,5.70
2018-12-11T00:23:09.033Z,5.70
2018-12-11T00:25:37.461Z,5.70
2018-12-11T00:28:05.895Z,5.70
2018-12-11T00:30:34.336Z,5.70
2018-12-11T00:33:02.798Z,5.80
2018-12-11T00:35:31.236Z,5.80
2018-12-11T00:37:59.766Z,5.80
2018-12-11T00:40:28.235Z,5.80
2018-12-11T00:42:56.776Z,5.80
2018-12-11T00:45:25.191Z,5.80
2018-12-11T00:47:53.635Z,5.70
2018-12-11T00:50:22.066Z,5.60
2018-12-11T00:52:50.522Z,5.70
2018-12-11T00:55:19.061Z,5.70
2018-12-11T00:57:47.507Z,5.70
2018-12-11T01:00:15.967Z,5.60
2018-12-11T01:02:44.388Z,5.70
2018-12-11T01:05:12.920Z,5.70
2018-12-11T01:07:41.374Z,5.70
2018-12-11T01:10:10.547Z,5.70
2018-12-11T01:12:38.976Z,5.70
2018-12-11T01:15:07.605Z,5.70
2018-12-11T01:17:36.047Z,5.70
2018-12-11T01:20:05.637Z,5.70
2018-12-11T01:22:34.058Z,5.70
2018-12-11T01:25:02.572Z,5.70
2018-12-11T01:27:31.006Z,5.70
2018-12-11T01:29:59.393Z,5.80
2018-12-11T01:32:27.818Z,5.70
2018-12-11T01:34:56.227Z,5.80
2018-12-11T01:37:24.626Z,5.70
2018-12-11T01:39:53.024Z,5.70
2018-12-11T01:42:21.438Z,5.70
2018-12-11T01:44:49.881Z,5.70
2018-12-11T01:47:18.288Z,5.60
2018-12-11T01:49:46.691Z,5.70
2018-12-11T01:52:15.163Z,5.60
2018-12-11T01:54:43.561Z,5.70
2018-12-11T01:57:11.995Z,5.60
2018-12-11T01:59:40.389Z,5.60
2018-12-11T02:02:08.918Z,5.60
2018-12-11T02:04:37.302Z,5.60
2018-12-11T02:07:05.752Z,5.60
2018-12-11T02:09:34.139Z,5.70
2018-12-11T02:12:02.552Z,5.70
2018-12-11T02:14:30.977Z,5.60
2018-12-11T02:16:59.397Z,5.70
2018-12-11T02:19:27.800Z,5.70
2018-12-11T02:21:56.227Z,5.70
2018-12-11T02:24:24.628Z,5.60
2018-12-11T02:26:53.057Z,5.50
2018-12-11T02:29:21.479Z,5.50
2018-12-11T02:31:49.904Z,5.50
2018-12-11T02:34:18.432Z,5.40
2018-12-11T02:36:46.892Z,5.30
2018-12-11T02:39:15.292Z,5.20
2018-12-11T02:41:43.745Z,5.20
2018-12-11T02:44:12.304Z,5.10
2018-12-11T02:46:40.729Z,5.10
2018-12-11T02:49:09.169Z,5.00
2018-12-11T02:51:37.581Z,5.00
2018-12-11T02:54:06.003Z,5.00
2018-12-11T02:56:34.392Z,5.00
2018-12-11T02:59:02.826Z,4.90
2018-12-11T03:01:31.343Z,4.90
2018-12-11T03:03:59.870Z,4.80
2018-12-11T03:06:28.296Z,4.80
2018-12-11T03:08:56.691Z,4.70
2018-12-11T03:11:25.122Z,4.60
2018-12-11T03:13:53.525Z,4.60
2018-12-11T03:16:21.939Z,4.60
2018-12-11T03:18:50.357Z,4.50
2018-12-11T03:21:18.759Z,4.50
2018-12-11T03:23:47.147Z,4.50
2018-12-11T03:26:15.562Z,4.60
2018-12-11T03:28:43.976Z,4.50
2018-12-11T03:31:12.428Z,4.50
2018-12-11T03:33:40.809Z,4.60
2018-12-11T03:36:09.236Z,4.60
2018-12-11T03:38:37.644Z,4.60
2018-12-11T03:41:06.191Z,4.60
2018-12-11T03:43:34.630Z,4.60
2018-12-11T03:46:03.168Z,4.60
2018-12-11T03:48:31.609Z,4.60
2018-12-11T03:51:00.024Z,4.60
2018-12-11T03:53:28.443Z,4.60
2018-12-11T03:55:56.857Z,4.70
2018-12-11T03:58:25.300Z,4.70
2018-12-11T04:00:53.711Z,4.70
2018-12-11T04:03:22.125Z,4.70
2018-12-11T04:05:50.639Z,4.70
2018-12-11T04:08:19.047Z,4.80
2018-12-11T04:10:47.455Z,4.80
2018-12-11T04:13:15.852Z,4.90
2018-12-11T04:15:44.319Z,5.00
2018-12-11T04:18:12.730Z,5.10
2018-12-11T04:20:41.244Z,5.10
2018-12-11T04:23:09.677Z,5.20
2018-12-11T04:25:38.089Z,5.20
2018-12-11T04:28:06.506Z,5.10
2018-12-11T04:30:34.932Z,5.10
2018-12-11T04:33:03.373Z,5.20
2018-12-11T04:35:31.780Z,5.10
2018-12-11T04:38:00.205Z,5.10
2018-12-11T04:40:28.622Z,5.00
2018-12-11T04:42:57.023Z,4.90
2018-12-11T04:45:25.472Z,4.80
2018-12-11T04:47:53.887Z,4.70
2018-12-11T04:50:22.323Z,4.70
2018-12-11T04:52:50.710Z,4.80
2018-12-11T04:55:19.109Z,4.80
2018-12-11T04:57:47.528Z,4.80
2018-12-11T05:00:15.953Z,4.90
2018-12-11T05:02:44.372Z,4.90
2018-12-11T05:05:12.757Z,4.90
2018-12-11T05:07:41.168Z,4.90
2018-12-11T05:10:09.754Z,4.90
2018-12-11T05:12:38.252Z,4.90
2018-12-11T05:15:07.763Z,5.00
2018-12-11T05:17:36.292Z,5.00
2018-12-11T05:20:05.223Z,5.00
2018-12-11T05:22:33.643Z,4.90
2018-12-11T05:25:02.052Z,4.90
2018-12-11T05:27:30.438Z,4.80
2018-12-11T05:29:58.828Z,4.80
2018-12-11T05:32:27.262Z,4.70
2018-12-11T05:34:55.658Z,4.70
2018-12-11T05:37:24.285Z,4.70
2018-12-11T05:39:52.678Z,4.70
2018-12-11T05:42:21.091Z,4.80
2018-12-11T05:44:49.535Z,4.90
2018-12-11T05:47:17.928Z,5.00
2018-12-11T05:49:46.326Z,5.10
2018-12-11T05:52:14.787Z,5.20
2018-12-11T05:54:43.180Z,5.20
2018-12-11T05:57:11.611Z,5.20
2018-12-11T05:59:39.990Z,5.20
2018-12-11T06:02:08.395Z,5.20
2018-12-11T06:04:36.791Z,5.20
2018-12-11T06:07:05.176Z,5.30
2018-12-11T06:09:33.696Z,5.30
2018-12-11T06:12:02.096Z,5.30
2018-12-11T06:14:30.480Z,5.40
2018-12-11T06:16:58.946Z,5.40
2018-12-11T06:19:27.341Z,5.30
2018-12-11T06:21:55.799Z,5.30
2018-12-11T06:24:24.207Z,5.20
2018-12-11T06:26:52.645Z,5.10
2018-12-11T06:29:21.052Z,5.10
2018-12-11T06:31:49.472Z,5.10
2018-12-11T06:34:17.909Z,5.10
2018-12-11T06:36:46.315Z,5.00
2018-12-11T06:39:21.042Z,5.10
2018-12-11T06:41:49.456Z,5.10
2018-12-11T06:44:17.867Z,5.10
2018-12-11T06:46:46.268Z,5.10
2018-12-11T06:49:14.774Z,5.10
2018-12-11T06:51:43.206Z,5.10
2018-12-11T06:54:11.611Z,5.00
2018-12-11T06:56:40.032Z,5.00
2018-12-11T06:59:08.436Z,5.00
2018-12-11T07:01:36.897Z,5.00
2018-12-11T07:04:05.313Z,5.00
2018-12-11T07:06:33.737Z,5.00
2018-12-11T07:09:02.160Z,5.00
2018-12-11T07:11:30.601Z,5.00
2018-12-11T07:13:59.049Z,5.00
2018-12-11T07:16:27.467Z,5.10
2018-12-11T07:18:56.020Z,5.20
2018-12-11T07:21:24.463Z,5.20
2018-12-11T07:23:52.872Z,5.20
2018-12-11T07:26:21.295Z,5.30
2018-12-11T07:28:49.721Z,5.30
2018-12-11T07:31:18.141Z,5.30
2018-12-11T07:33:50.838Z,5.40
2018-12-11T07:36:23.744Z,5.30
2018-12-11T07:38:52.177Z,5.40
2018-12-11T07:41:20.586Z,5.40
2018-12-11T07:43:49.008Z,5.40
2018-12-11T07:46:17.439Z,5.40
2018-12-11T07:48:45.864Z,5.40
2018-12-11T07:51:14.432Z,5.50
2018-12-11T07:53:42.882Z,5.50
2018-12-11T07:56:11.307Z,5.50
2018-12-11T07:58:39.738Z,5.50
2018-12-11T08:01:08.191Z,5.50
2018-12-11T08:03:36.621Z,5.40
2018-12-11T08:06:05.039Z,5.30
2018-12-11T08:08:33.482Z,5.30
2018-12-11T08:11:08.531Z,5.20
2018-12-11T08:13:36.967Z,5.20
2018-12-11T08:16:05.902Z,5.20
2018-12-11T08:18:34.329Z,5.20
2018-12-11T08:21:02.844Z,5.70
2018-12-11T08:23:31.249Z,6.60
2018-12-11T08:25:59.717Z,7.70
2018-12-11T08:28:28.169Z,8.60
2018-12-11T08:30:56.597Z,8.80
2018-12-11T08:33:27.827Z,8.80
2018-12-11T08:35:56.312Z,9.00
2018-12-11T08:38:24.733Z,9.20
2018-12-11T08:40:53.149Z,8.70
2018-12-11T08:43:21.577Z,8.10
2018-12-11T08:45:49.999Z,7.60
2018-12-11T08:48:18.428Z,7.30
2018-12-11T08:50:46.870Z,7.00
2018-12-11T08:53:15.329Z,6.80
2018-12-11T08:55:43.785Z,6.70
2018-12-11T08:58:12.218Z,6.90
2018-12-11T09:00:40.677Z,7.30
2018-12-11T09:03:09.108Z,7.30
2018-12-11T09:05:37.527Z,7.30
2018-12-11T09:08:05.965Z,7.30
2018-12-11T09:10:34.376Z,7.40
2018-12-11T09:13:02.823Z,8.20
2018-12-11T09:15:31.248Z,9.80
2018-12-11T09:17:59.687Z,11.30
2018-12-11T09:20:28.116Z,12.20
2018-12-11T09:22:56.504Z,12.60
2018-12-11T09:25:24.955Z,12.20
2018-12-11T09:27:53.394Z,11.20
2018-12-11T09:30:21.816Z,10.40
2018-12-11T09:32:50.229Z,9.70
2018-12-11T09:35:18.662Z,9.20
2018-12-11T09:37:47.090Z,9.00
2018-12-11T09:40:15.503Z,8.90
2018-12-11T09:42:43.921Z,8.80
2018-12-11T09:45:12.364Z,8.50
2018-12-11T09:47:40.768Z,8.50
2018-12-11T09:50:09.458Z,8.40
2018-12-11T09:52:37.892Z,8.30
2018-12-11T09:55:06.601Z,8.20
2018-12-11T09:57:35.035Z,8.10
2018-12-11T10:00:04.151Z,8.10
2018-12-11T10:02:32.562Z,8.10
2018-12-11T10:05:00.979Z,8.10
2018-12-11T10:07:29.433Z,7.90
2018-12-11T10:09:57.872Z,7.80
2018-12-11T10:12:26.317Z,7.60
2018-12-11T10:14:54.727Z,7.60
2018-12-11T10:17:23.151Z,7.40
2018-12-11T10:19:51.583Z,7.40
2018-12-11T10:22:20.023Z,7.40
2018-12-11T10:24:48.516Z,7.50
2018-12-11T10:27:16.943Z,7.40
2018-12-11T10:29:45.369Z,7.50
2018-12-11T10:32:13.790Z,7.60
2018-12-11T10:34:42.354Z,7.70
2018-12-11T10:37:10.900Z,7.70
2018-12-11T10:39:39.341Z,7.70
2018-12-11T10:42:07.761Z,7.50
2018-12-11T10:44:36.177Z,7.40
2018-12-11T10:47:04.604Z,7.30
2018-12-11T10:49:33.031Z,7.20
2018-12-11T10:52:01.507Z,7.20
2018-12-11T10:54:29.927Z,7.20
2018-12-11T10:56:58.394Z,7.30
2018-12-11T10:59:26.830Z,7.70
2018-12-11T11:01:57.309Z,8.00
2018-12-11T11:04:25.856Z,8.20
2018-12-11T11:06:54.284Z,8.30
2018-12-11T11:09:22.744Z,8.30
2018-12-11T11:11:51.212Z,8.20
2018-12-11T11:14:19.677Z,8.10
2018-12-11T11:16:48.222Z,8.10
2018-12-11T11:19:16.972Z,8.10
2018-12-11T11:21:45.445Z,8.20
2018-12-11T11:24:13.960Z,8.30
2018-12-11T11:26:42.378Z,8.30
2018-12-11T11:29:10.812Z,8.30
2018-12-11T11:31:39.312Z,8.20
2018-12-11T11:34:07.740Z,9.20
2018-12-11T11:36:36.225Z,10.70
2018-12-11T11:39:07.500Z,12.10
2018-12-11T11:41:35.913Z,13.10
2018-12-11T11:44:04.351Z,13.80
2018-12-11T11:46:32.776Z,14.40
2018-12-11T11:49:01.246Z,15.10
2018-12-11T11:51:29.672Z,15.40
2018-12-11T11:53:58.108Z,15.60
2018-12-11T11:56:27.037Z,16.30
2018-12-11T11:58:55.436Z,15.80
2018-12-11T12:01:23.856Z,14.80
2018-12-11T12:03:52.290Z,14.10
2018-12-11T12:06:20.726Z,13.60
2018-12-11T12:08:50.215Z,12.90
2018-12-11T12:11:18.662Z,12.40
2018-12-11T12:13:47.639Z,11.80
2018-12-11T12:16:16.055Z,11.50
2018-12-11T12:18:44.483Z,11.40
2018-12-11T12:21:12.905Z,11.10
2018-12-11T12:23:41.342Z,11.00
2018-12-11T12:26:09.839Z,11.00
2018-12-11T12:28:38.269Z,10.80
2018-12-11T12:31:07.087Z,10.40
2018-12-11T12:33:35.506Z,10.30
2018-12-11T12:36:03.930Z,10.20
2018-12-11T12:38:32.364Z,10.20
2018-12-11T12:41:00.773Z,10.00
2018-12-11T12:43:35.996Z,9.80
2018-12-11T12:46:04.409Z,9.80
2018-12-11T12:48:32.838Z,9.90
2018-12-11T12:51:01.313Z,10.80
2018-12-11T12:53:29.783Z,12.20
2018-12-11T12:55:58.278Z,12.70
2018-12-11T12:58:26.691Z,12.10
2018-12-11T13:00:55.443Z,11.10
2018-12-11T13:03:24.030Z,10.50
2018-12-11T13:05:52.436Z,10.40
2018-12-11T13:08:20.858Z,10.50
2018-12-11T13:10:49.271Z,10.40
2018-12-11T13:13:17.738Z,9.90
2018-12-11T13:15:46.152Z,9.70
2018-12-11T13:18:14.579Z,9.30
2018-12-11T13:20:43.126Z,8.80
2018-12-11T13:23:11.535Z,8.50
2018-12-11T13:25:39.924Z,7.90
2018-12-11T13:28:08.351Z,7.60
2018-12-11T13:30:36.805Z,7.30
2018-12-11T13:33:05.211Z,7.20
2018-12-11T13:35:33.678Z,7.20
2018-12-11T13:38:02.103Z,7.40
2018-12-11T13:40:30.929Z,7.80
2018-12-11T13:42:59.706Z,8.20
2018-12-11T13:45:28.152Z,8.40
2018-12-11T13:47:56.685Z,8.30
2018-12-11T13:50:25.228Z,8.20
2018-12-11T13:52:53.674Z,8.20
2018-12-11T13:55:22.106Z,8.30
2018-12-11T13:57:50.511Z,8.40
2018-12-11T14:00:18.962Z,8.20
2018-12-11T14:02:47.398Z,8.20
2018-12-11T14:05:16.115Z,8.00
2018-12-11T14:07:44.563Z,7.80
2018-12-11T14:10:13.120Z,7.90
2018-12-11T14:12:41.547Z,7.70
2018-12-11T14:15:10.199Z,7.60
2018-12-11T14:17:38.618Z,7.50
2018-12-11T14:20:07.656Z,7.30
2018-12-11T14:22:36.069Z,7.20
2018-12-11T14:25:04.853Z,7.20
2018-12-11T14:27:33.274Z,7.10
2018-12-11T14:30:01.723Z,7.00
2018-12-11T14:32:30.339Z,7.00
2018-12-11T14:34:58.784Z,7.00
2018-12-11T14:37:27.229Z,6.90
2018-12-11T14:39:55.653Z,6.80
2018-12-11T14:42:24.041Z,6.70
2018-12-11T14:44:52.529Z,6.70
2018-12-11T14:47:20.933Z,6.60
2018-12-11T14:49:49.805Z,6.40
2018-12-11T14:52:18.244Z,6.40
2018-12-11T14:54:46.720Z,6.30
2018-12-11T14:57:15.211Z,6.20
2018-12-11T14:59:43.624Z,6.10
2018-12-11T15:02:12.048Z,6.10
2018-12-11T15:04:40.595Z,6.10
2018-12-11T15:07:09.084Z,6.20
2018-12-11T15:09:43.934Z,6.20
2018-12-11T15:12:12.617Z,6.30
2018-12-11T15:14:41.136Z,6.30
2018-12-11T15:17:09.588Z,6.30
2018-12-11T15:19:38.095Z,6.30
2018-12-11T15:22:06.506Z,6.30
2018-12-11T15:24:34.969Z,6.30
2018-12-11T15:27:03.539Z,6.30
2018-12-11T15:29:31.947Z,6.30
2018-12-11T15:32:00.376Z,6.30
2018-12-11T15:34:28.819Z,6.30
2018-12-11T15:36:57.242Z,6.30
2018-12-11T15:39:25.730Z,6.30
2018-12-11T15:41:54.149Z,6.40
2018-12-11T15:44:22.535Z,6.40
2018-12-11T15:46:51.112Z,6.40
2018-12-11T15:49:19.600Z,6.40
2018-12-11T15:51:48.217Z,6.40
2018-12-11T15:54:16.654Z,6.40
2018-12-11T15:56:45.556Z,6.40
2018-12-11T15:59:13.991Z,6.40
2018-12-11T16:01:42.591Z,6.30
2018-12-11T16:04:10.999Z,6.30
2018-12-11T16:06:39.401Z,6.20
2018-12-11T16:09:10.901Z,6.10
2018-12-11T16:11:39.471Z,6.00
2018-12-11T16:14:08.047Z,5.90
2018-12-11T16:16:36.527Z,5.90
2018-12-11T16:19:04.977Z,5.80
2018-12-11T16:21:33.391Z,5.80
2018-12-11T16:24:01.817Z,5.70
2018-12-11T16:26:30.258Z,5.60
2018-12-11T16:28:58.725Z,5.60
2018-12-11T16:31:27.196Z,5.60
2018-12-11T16:33:55.681Z,5.50
2018-12-11T16:36:24.103Z,5.50
2018-12-11T16:38:52.525Z,5.50
2018-12-11T16:41:20.995Z,5.50
2018-12-11T16:43:49.405Z,5.60
2018-12-11T16:46:17.808Z,5.60
2018-12-11T16:48:46.221Z,5.60
2018-12-11T16:51:14.632Z,5.60
2018-12-11T16:53:43.059Z,5.70
2018-12-11T16:56:11.496Z,5.70
2018-12-11T16:58:39.907Z,5.70
2018-12-11T17:01:08.329Z,5.70
2018-12-11T17:03:36.793Z,5.70
2018-12-11T17:06:05.190Z,5.70
2018-12-11T17:08:33.622Z,5.60
2018-12-11T17:11:02.025Z,5.60
2018-12-11T17:13:30.464Z,5.50
2018-12-11T17:15:58.866Z,5.50
2018-12-11T17:18:27.289Z,5.40
2018-12-11T17:20:56.148Z,5.40
2018-12-11T17:23:24.574Z,5.50
2018-12-11T17:25:53.019Z,5.50
2018-12-11T17:28:21.472Z,5.50
2018-12-11T17:30:49.898Z,5.60
2018-12-11T17:33:18.469Z,5.60
2018-12-11T17:35:46.901Z,5.60
2018-12-11T17:38:15.328Z,5.70
2018-12-11T17:40:43.740Z,5.70
2018-12-11T17:43:12.212Z,5.80
2018-12-11T17:45:40.704Z,5.70
2018-12-11T17:48:09.854Z,5.80
2018-12-11T17:50:39.284Z,5.80
2018-12-11T17:53:07.715Z,5.80
2018-12-11T17:55:36.255Z,5.70
2018-12-11T17:58:04.689Z,5.70
2018-12-11T18:00:33.120Z,5.70
2018-12-11T18:03:01.521Z,5.70
2018-12-11T18:05:29.957Z,5.70
2018-12-11T18:07:58.386Z,5.70
2018-12-11T18:10:26.824Z,5.60
2018-12-11T18:12:55.218Z,5.50
2018-12-11T18:15:23.636Z,5.50
2018-12-11T18:17:52.000Z,5.50
2018-12-11T18:20:20.482Z,5.60
2018-12-11T18:22:48.867Z,5.60
2018-12-11T18:25:17.611Z,5.50
2018-12-11T18:27:46.046Z,5.50
2018-12-11T18:30:14.584Z,5.50
2018-12-11T18:32:43.012Z,5.40
2018-12-11T18:35:14.054Z,5.40
2018-12-11T18:37:42.467Z,5.30
2018-12-11T18:40:10.969Z,5.30
2018-12-11T18:42:39.403Z,5.20
2018-12-11T18:45:09.771Z,5.20
2018-12-11T18:47:38.187Z,5.00
2018-12-11T18:50:07.337Z,4.90
2018-12-11T18:52:35.787Z,4.80
2018-12-11T18:55:04.483Z,4.70
2018-12-11T18:57:32.932Z,4.50
2018-12-11T19:00:01.345Z,4.40
2018-12-11T19:02:29.796Z,4.40
2018-12-11T19:04:58.332Z,4.30
2018-12-11T19:07:26.747Z,4.10
2018-12-11T19:09:55.340Z,4.00
2018-12-11T19:12:23.761Z,4.00
2018-12-11T19:14:52.220Z,3.90
2018-12-11T19:17:20.670Z,4.00
2018-12-11T19:19:49.079Z,4.00
2018-12-11T19:22:17.491Z,3.90
2018-12-11T19:24:49.754Z,3.90
2018-12-11T19:27:18.187Z,4.00
2018-12-11T19:29:46.663Z,4.00
2018-12-11T19:32:15.208Z,4.00
2018-12-11T19:34:43.615Z,3.90
2018-12-11T19:37:12.131Z,3.80
2018-12-11T19:39:40.570Z,3.80
2018-12-11T19:42:09.301Z,3.70
2018-12-11T19:44:37.739Z,3.60
2018-12-11T19:47:06.175Z,3.60
2018-12-11T19:49:34.615Z,3.50
2018-12-11T19:52:03.057Z,3.40
2018-12-11T19:54:31.492Z,3.40
2018-12-11T19:57:00.589Z,3.30
2018-12-11T19:59:29.061Z,3.30
2018-12-11T20:01:57.484Z,3.20
2018-12-11T20:04:25.934Z,3.30
2018-12-11T20:06:54.380Z,3.30
2018-12-11T20:09:22.801Z,3.30
2018-12-11T20:11:51.367Z,3.40
2018-12-11T20:14:19.881Z,3.50
2018-12-11T20:16:48.300Z,3.60
2018-12-11T20:19:16.853Z,3.60
2018-12-11T20:21:45.483Z,3.80
2018-12-11T20:24:14.164Z,3.80
2018-12-11T20:26:42.705Z,3.80
2018-12-11T20:29:11.179Z,3.90
2018-12-11T20:31:40.619Z,3.90
2018-12-11T20:34:09.103Z,3.80
2018-12-11T20:36:38.724Z,3.90
2018-12-11T20:39:09.894Z,3.90
2018-12-11T20:41:38.647Z,4.00
2018-12-11T20:44:07.353Z,4.00
2018-12-11T20:46:37.099Z,4.00
2018-12-11T20:49:07.193Z,4.10
2018-12-11T20:51:39.212Z,4.20
2018-12-11T20:54:08.507Z,4.20
2018-12-11T20:56:38.277Z,4.20
2018-12-11T20:59:07.732Z,4.20
2018-12-11T21:01:37.856Z,4.20
2018-12-11T21:04:07.682Z,4.10
2018-12-11T21:14:57.388Z,4.10
2018-12-11T21:17:30.156Z,4.10
2018-12-11T21:20:00.587Z,4.10
2018-12-11T21:22:39.953Z,4.10
2018-12-11T21:25:10.248Z,4.20
2018-12-11T21:27:45.892Z,4.10
2018-12-11T21:30:19.878Z,4.10
2018-12-11T21:32:56.664Z,4.00
2018-12-11T21:35:34.264Z,3.90
2018-12-11T21:38:05.192Z,3.80
2018-12-11T21:40:35.680Z,3.80
2018-12-11T21:43:04.344Z,3.70
2018-12-11T21:45:32.934Z,3.50
2018-12-11T21:48:01.409Z,3.40
2018-12-11T21:50:30.353Z,3.40
2018-12-11T21:52:58.904Z,3.40
2018-12-11T21:55:27.428Z,3.30
2018-12-11T21:57:56.019Z,3.30
2018-12-11T22:00:24.841Z,3.20
2018-12-11T22:02:53.375Z,3.20
2018-12-11T22:05:21.825Z,3.00
2018-12-11T22:07:50.489Z,3.00
2018-12-11T22:10:19.052Z,2.90
2018-12-11T22:12:47.740Z,2.90
2018-12-11T22:15:16.170Z,2.90
2018-12-11T22:17:44.728Z,2.80
2018-12-11T22:20:13.148Z,2.80
2018-12-11T22:22:41.883Z,2.90
2018-12-11T22:25:10.389Z,3.00
2018-12-11T22:27:38.830Z,3.00
2018-12-11T22:30:08.098Z,3.10
2018-12-11T22:32:36.565Z,3.20
2018-12-11T22:35:05.409Z,3.30
2018-12-11T22:37:33.853Z,3.30
2018-12-11T22:40:02.321Z,3.30
2018-12-11T22:42:31.154Z,3.30
2018-12-11T22:44:59.599Z,3.40
2018-12-11T22:47:28.536Z,3.40
2018-12-11T22:49:56.989Z,3.40
2018-12-11T22:52:25.627Z,3.40
2018-12-11T22:54:54.062Z,3.40
2018-12-11T22:57:22.529Z,3.40
2018-12-11T22:59:50.971Z,3.40
2018-12-11T23:02:19.403Z,3.40
2018-12-11T23:04:47.847Z,3.60
2018-12-11T23:07:16.298Z,3.70
2018-12-11T23:09:45.143Z,3.70
2018-12-11T23:12:13.698Z,3.70
2018-12-11T23:14:42.305Z,3.70
2018-12-11T23:17:10.731Z,3.70
2018-12-11T23:19:39.151Z,3.70
2018-12-11T23:22:07.656Z,3.60
2018-12-11T23:24:42.557Z,3.60
2018-12-11T23:27:11.025Z,3.60
2018-12-11T23:29:39.769Z,3.50
2018-12-11T23:32:08.202Z,3.60
2018-12-11T23:34:36.645Z,3.50
2018-12-11T23:37:05.124Z,3.50
2018-12-11T23:39:33.576Z,3.50
2018-12-11T23:42:01.969Z,3.40
2018-12-11T23:44:30.408Z,3.40
2018-12-11T23:46:58.885Z,3.40
2018-12-11T23:49:27.338Z,3.30
2018-12-11T23:51:55.793Z,3.40
2018-12-11T23:54:24.229Z,3.40
2018-12-11T23:56:52.681Z,3.50
2018-12-11T23:59:21.178Z,3.60
